sensor_id;sensor_type;location;lat;lon;timestamp;pressure;altitude;pressure_sealevel;temperature;humidity
65019;BME280;66069;51.164;-114.452;2023-02-04T00:01:45;87039.38;;;16.35;40.64
65019;BME280;66069;51.164;-114.452;2023-02-04T00:04:14;87048.56;;;16.47;40.66
65019;BME280;66069;51.164;-114.452;2023-02-04T00:06:40;87043.28;;;16.47;40.84
65019;BME280;66069;51.164;-114.452;2023-02-04T00:09:07;87030.53;;;16.41;40.68
65019;BME280;66069;51.164;-114.452;2023-02-04T00:11:33;87019.78;;;16.32;40.50
65019;BME280;66069;51.164;-114.452;2023-02-04T00:13:59;87031.34;;;16.38;40.67
65019;BME280;66069;51.164;-114.452;2023-02-04T00:16:26;87017.56;;;16.31;40.76
65019;BME280;66069;51.164;-114.452;2023-02-04T00:18:52;87047.91;;;16.42;40.61
65019;BME280;66069;51.164;-114.452;2023-02-04T00:21:18;87022.09;;;16.30;40.66
65019;BME280;66069;51.164;-114.452;2023-02-04T00:23:45;87039.72;;;16.37;40.53
65019;BME280;66069;51.164;-114.452;2023-02-04T00:26:11;87027.72;;;16.32;40.66
65019;BME280;66069;51.164;-114.452;2023-02-04T00:28:37;87041.19;;;16.38;40.52
65019;BME280;66069;51.164;-114.452;2023-02-04T00:31:04;87015.09;;;16.24;40.64
65019;BME280;66069;51.164;-114.452;2023-02-04T00:33:31;87029.38;;;16.26;40.56
65019;BME280;66069;51.164;-114.452;2023-02-04T00:35:57;87037.50;;;16.35;40.47
65019;BME280;66069;51.164;-114.452;2023-02-04T00:38:23;87046.25;;;16.32;40.56
65019;BME280;66069;51.164;-114.452;2023-02-04T00:40:50;87059.06;;;16.34;40.61
65019;BME280;66069;51.164;-114.452;2023-02-04T00:43:16;87051.03;;;16.21;40.55
65019;BME280;66069;51.164;-114.452;2023-02-04T00:45:42;87070.47;;;16.31;40.50
65019;BME280;66069;51.164;-114.452;2023-02-04T00:48:10;87071.94;;;16.32;40.46
65019;BME280;66069;51.164;-114.452;2023-02-04T00:50:36;87066.81;;;16.25;40.43
65019;BME280;66069;51.164;-114.452;2023-02-04T00:53:05;87048.47;;;16.18;40.65
65019;BME280;66069;51.164;-114.452;2023-02-04T00:55:32;87066.50;;;16.23;40.45
65019;BME280;66069;51.164;-114.452;2023-02-04T00:57:58;87075.44;;;16.29;40.17
65019;BME280;66069;51.164;-114.452;2023-02-04T01:00:25;87075.59;;;16.22;40.22
65019;BME280;66069;51.164;-114.452;2023-02-04T01:02:51;87076.97;;;16.26;40.17
65019;BME280;66069;51.164;-114.452;2023-02-04T01:05:17;87058.72;;;16.15;40.41
65019;BME280;66069;51.164;-114.452;2023-02-04T01:07:44;87086.06;;;16.25;40.09
65019;BME280;66069;51.164;-114.452;2023-02-04T01:10:10;87078.56;;;16.24;40.16
65019;BME280;66069;51.164;-114.452;2023-02-04T01:12:37;87050.53;;;16.10;40.06
65019;BME280;66069;51.164;-114.452;2023-02-04T01:15:04;87046.78;;;16.07;39.89
65019;BME280;66069;51.164;-114.452;2023-02-04T01:17:30;87061.63;;;16.21;40.17
65019;BME280;66069;51.164;-114.452;2023-02-04T01:19:57;87061.63;;;16.21;40.09
65019;BME280;66069;51.164;-114.452;2023-02-04T01:22:23;87016.97;;;15.91;40.17
65019;BME280;66069;51.164;-114.452;2023-02-04T01:24:49;87063.91;;;16.19;40.04
65019;BME280;66069;51.164;-114.452;2023-02-04T01:27:15;87054.19;;;16.16;40.22
65019;BME280;66069;51.164;-114.452;2023-02-04T01:29:42;87054.66;;;16.11;40.20
65019;BME280;66069;51.164;-114.452;2023-02-04T01:32:08;87057.56;;;16.17;40.01
65019;BME280;66069;51.164;-114.452;2023-02-04T01:34:34;87030.69;;;16.02;40.17
65019;BME280;66069;51.164;-114.452;2023-02-04T01:37:04;87042.59;;;16.10;40.07
65019;BME280;66069;51.164;-114.452;2023-02-04T01:39:30;87041.34;;;15.98;39.85
65019;BME280;66069;51.164;-114.452;2023-02-04T01:41:59;87024.81;;;15.94;39.88
65019;BME280;66069;51.164;-114.452;2023-02-04T01:44:26;87046.00;;;16.10;39.92
65019;BME280;66069;51.164;-114.452;2023-02-04T01:46:54;87028.88;;;15.99;40.06
65019;BME280;66069;51.164;-114.452;2023-02-04T01:49:20;87037.72;;;16.08;39.97
65019;BME280;66069;51.164;-114.452;2023-02-04T01:51:47;87043.41;;;16.07;39.87
65019;BME280;66069;51.164;-114.452;2023-02-04T01:54:14;87036.38;;;16.00;40.05
65019;BME280;66069;51.164;-114.452;2023-02-04T01:56:45;87040.03;;;16.06;40.03
65019;BME280;66069;51.164;-114.452;2023-02-04T01:59:15;87030.69;;;16.02;40.05
65019;BME280;66069;51.164;-114.452;2023-02-04T02:01:44;87046.47;;;16.05;40.16
65019;BME280;66069;51.164;-114.452;2023-02-04T02:04:16;87042.00;;;16.02;39.88
65019;BME280;66069;51.164;-114.452;2023-02-04T02:06:55;87045.41;;;16.03;40.06
65019;BME280;66069;51.164;-114.452;2023-02-04T02:09:24;87042.75;;;16.03;39.96
65019;BME280;66069;51.164;-114.452;2023-02-04T02:11:51;87039.78;;;16.01;40.06
65019;BME280;66069;51.164;-114.452;2023-02-04T02:14:18;87030.19;;;15.91;40.14
65019;BME280;66069;51.164;-114.452;2023-02-04T02:16:45;87036.81;;;15.99;39.91
65019;BME280;66069;51.164;-114.452;2023-02-04T02:19:19;87036.06;;;15.98;39.96
65019;BME280;66069;51.164;-114.452;2023-02-04T02:21:56;87035.31;;;15.98;39.78
65019;BME280;66069;51.164;-114.452;2023-02-04T02:24:28;87028.13;;;15.98;39.85
65019;BME280;66069;51.164;-114.452;2023-02-04T02:26:56;87023.66;;;15.95;39.86
65019;BME280;66069;51.164;-114.452;2023-02-04T02:29:24;87027.88;;;15.93;39.94
65019;BME280;66069;51.164;-114.452;2023-02-04T02:31:51;87021.75;;;15.96;40.06
65019;BME280;66069;51.164;-114.452;2023-02-04T02:34:18;87022.59;;;15.93;39.91
65019;BME280;66069;51.164;-114.452;2023-02-04T02:36:45;87019.53;;;15.94;39.94
65019;BME280;66069;51.164;-114.452;2023-02-04T02:39:11;87018.03;;;15.93;39.90
65019;BME280;66069;51.164;-114.452;2023-02-04T02:41:37;87014.81;;;15.85;39.88
65019;BME280;66069;51.164;-114.452;2023-02-04T02:44:04;86997.22;;;15.79;39.89
65019;BME280;66069;51.164;-114.452;2023-02-04T02:46:31;87014.81;;;15.85;39.91
65019;BME280;66069;51.164;-114.452;2023-02-04T02:48:57;87006.94;;;15.82;40.03
65019;BME280;66069;51.164;-114.452;2023-02-04T02:51:24;87030.59;;;15.89;39.82
65019;BME280;66069;51.164;-114.452;2023-02-04T02:53:50;87017.03;;;15.87;39.86
65019;BME280;66069;51.164;-114.452;2023-02-04T02:56:17;87016.31;;;15.86;39.86
65019;BME280;66069;51.164;-114.452;2023-02-04T02:58:44;87014.81;;;15.85;39.95
65019;BME280;66069;51.164;-114.452;2023-02-04T03:01:11;87008.03;;;15.84;39.71
65019;BME280;66069;51.164;-114.452;2023-02-04T03:04:00;87014.81;;;15.85;39.67
65019;BME280;66069;51.164;-114.452;2023-02-04T03:06:27;87014.13;;;15.81;39.81
65019;BME280;66069;51.164;-114.452;2023-02-04T03:08:55;87018.28;;;15.82;39.76
65019;BME280;66069;51.164;-114.452;2023-02-04T03:11:22;87017.53;;;15.82;39.65
65019;BME280;66069;51.164;-114.452;2023-02-04T03:13:51;87003.47;;;15.69;39.79
65019;BME280;66069;51.164;-114.452;2023-02-04T03:16:18;87028.50;;;15.80;39.79
65019;BME280;66069;51.164;-114.452;2023-02-04T03:18:44;87019.84;;;15.80;39.65
65019;BME280;66069;51.164;-114.452;2023-02-04T03:21:11;86981.38;;;15.59;39.89
65019;BME280;66069;51.164;-114.452;2023-02-04T03:23:37;87004.88;;;15.73;39.62
65019;BME280;66069;51.164;-114.452;2023-02-04T03:26:04;87001.88;;;15.71;39.78
65019;BME280;66069;51.164;-114.452;2023-02-04T03:28:37;86999.50;;;15.77;39.52
65019;BME280;66069;51.164;-114.452;2023-02-04T03:31:04;86998.75;;;15.76;39.59
65019;BME280;66069;51.164;-114.452;2023-02-04T03:33:30;86984.66;;;15.67;39.79
65019;BME280;66069;51.164;-114.452;2023-02-04T03:35:57;86993.91;;;15.75;39.59
65019;BME280;66069;51.164;-114.452;2023-02-04T03:38:24;86984.28;;;15.65;39.68
65019;BME280;66069;51.164;-114.452;2023-02-04T03:40:51;86978.28;;;15.64;39.59
65019;BME280;66069;51.164;-114.452;2023-02-04T03:43:20;86986.56;;;15.66;39.68
65019;BME280;66069;51.164;-114.452;2023-02-04T03:45:46;86969.72;;;15.56;39.44
65019;BME280;66069;51.164;-114.452;2023-02-04T03:48:13;86987.63;;;15.69;39.59
65019;BME280;66069;51.164;-114.452;2023-02-04T03:50:39;86991.47;;;15.64;39.59
65019;BME280;66069;51.164;-114.452;2023-02-04T03:53:05;87000.81;;;15.69;39.33
65019;BME280;66069;51.164;-114.452;2023-02-04T03:55:32;86992.16;;;15.68;39.38
65019;BME280;66069;51.164;-114.452;2023-02-04T03:57:58;86987.75;;;15.61;39.53
65019;BME280;66069;51.164;-114.452;2023-02-04T04:00:25;86980.97;;;15.60;39.46
65019;BME280;66069;51.164;-114.452;2023-02-04T04:02:52;86987.00;;;15.61;39.45
65019;BME280;66069;51.164;-114.452;2023-02-04T04:05:18;86986.00;;;15.55;39.49
65019;BME280;66069;51.164;-114.452;2023-02-04T04:07:45;87001.25;;;15.67;40.11
65019;BME280;66069;51.164;-114.452;2023-02-04T04:10:11;86992.91;;;15.69;40.89
65019;BME280;66069;51.164;-114.452;2023-02-04T04:12:37;86986.88;;;15.68;40.73
65019;BME280;66069;51.164;-114.452;2023-02-04T04:15:04;86995.53;;;15.69;41.04
65019;BME280;66069;51.164;-114.452;2023-02-04T04:17:31;86987.19;;;15.70;41.17
65019;BME280;66069;51.164;-114.452;2023-02-04T04:19:57;86985.72;;;15.69;40.98
65019;BME280;66069;51.164;-114.452;2023-02-04T04:22:23;86983.81;;;15.70;41.10
65019;BME280;66069;51.164;-114.452;2023-02-04T04:24:50;86980.84;;;15.68;40.89
65019;BME280;66069;51.164;-114.452;2023-02-04T04:27:16;86989.44;;;15.72;40.88
65019;BME280;66069;51.164;-114.452;2023-02-04T04:29:43;86995.47;;;15.72;40.92
65019;BME280;66069;51.164;-114.452;2023-02-04T04:32:09;86996.22;;;15.73;41.13
65019;BME280;66069;51.164;-114.452;2023-02-04T04:34:35;86998.75;;;15.76;41.97
65019;BME280;66069;51.164;-114.452;2023-02-04T04:37:02;86992.31;;;15.77;42.09
65019;BME280;66069;51.164;-114.452;2023-02-04T04:39:28;86983.25;;;15.78;42.02
65019;BME280;66069;51.164;-114.452;2023-02-04T04:41:54;86982.91;;;15.76;42.15
65019;BME280;66069;51.164;-114.452;2023-02-04T04:44:20;86970.19;;;15.71;41.77
65019;BME280;66069;51.164;-114.452;2023-02-04T04:46:47;86974.91;;;15.80;42.13
65019;BME280;66069;51.164;-114.452;2023-02-04T04:49:13;86973.25;;;15.70;41.92
65019;BME280;66069;51.164;-114.452;2023-02-04T04:51:41;86982.09;;;15.79;41.79
65019;BME280;66069;51.164;-114.452;2023-02-04T04:54:07;86969.53;;;15.67;41.81
65019;BME280;66069;51.164;-114.452;2023-02-04T04:56:33;86993.31;;;15.83;41.81
65019;BME280;66069;51.164;-114.452;2023-02-04T04:59:00;86997.88;;;15.83;41.88
65019;BME280;66069;51.164;-114.452;2023-02-04T05:01:26;86990.34;;;15.81;41.63
65019;BME280;66069;51.164;-114.452;2023-02-04T05:03:52;87003.88;;;15.83;41.84
65019;BME280;66069;51.164;-114.452;2023-02-04T05:06:19;86999.75;;;15.82;41.77
65019;BME280;66069;51.164;-114.452;2023-02-04T05:08:53;87011.81;;;15.83;41.76
65019;BME280;66069;51.164;-114.452;2023-02-04T05:11:19;87014.47;;;15.83;41.68
65019;BME280;66069;51.164;-114.452;2023-02-04T05:13:46;87010.44;;;15.79;41.68
65019;BME280;66069;51.164;-114.452;2023-02-04T05:16:12;87015.63;;;15.82;41.71
65019;BME280;66069;51.164;-114.452;2023-02-04T05:18:40;87016.38;;;15.83;41.83
65019;BME280;66069;51.164;-114.452;2023-02-04T05:21:07;87003.88;;;15.83;41.63
65019;BME280;66069;51.164;-114.452;2023-02-04T05:23:33;87008.44;;;15.83;41.79
65019;BME280;66069;51.164;-114.452;2023-02-04T05:26:00;86996.38;;;15.82;41.79
65019;BME280;66069;51.164;-114.452;2023-02-04T05:28:26;86978.94;;;15.68;41.75
65019;BME280;66069;51.164;-114.452;2023-02-04T05:30:53;86991.84;;;15.82;41.61
65019;BME280;66069;51.164;-114.452;2023-02-04T05:33:19;86983.75;;;15.73;41.50
65019;BME280;66069;51.164;-114.452;2023-02-04T05:35:45;86993.41;;;15.80;41.58
65019;BME280;66069;51.164;-114.452;2023-02-04T05:38:12;86997.53;;;15.81;41.55
65019;BME280;66069;51.164;-114.452;2023-02-04T05:40:38;86962.28;;;15.51;41.66
65019;BME280;66069;51.164;-114.452;2023-02-04T05:43:04;87004.72;;;15.80;41.73
65019;BME280;66069;51.164;-114.452;2023-02-04T05:45:30;87007.03;;;15.78;41.55
65019;BME280;66069;51.164;-114.452;2023-02-04T05:47:57;87003.25;;;15.79;41.67
65019;BME280;66069;51.164;-114.452;2023-02-04T05:50:23;87008.94;;;15.78;41.64
65019;BME280;66069;51.164;-114.452;2023-02-04T05:52:49;87017.63;;;15.78;41.55
65019;BME280;66069;51.164;-114.452;2023-02-04T05:55:16;87001.16;;;15.71;41.45
65019;BME280;66069;51.164;-114.452;2023-02-04T05:57:42;87016.88;;;15.78;41.48
65019;BME280;66069;51.164;-114.452;2023-02-04T06:00:10;87018.91;;;15.70;41.50
65019;BME280;66069;51.164;-114.452;2023-02-04T06:02:37;87027.09;;;15.76;41.38
65019;BME280;66069;51.164;-114.452;2023-02-04T06:05:03;87033.53;;;15.75;41.42
65019;BME280;66069;51.164;-114.452;2023-02-04T06:07:29;86982.41;;;15.45;41.44
65019;BME280;66069;51.164;-114.452;2023-02-04T06:09:56;87026.78;;;15.74;41.35
65019;BME280;66069;51.164;-114.452;2023-02-04T06:12:22;87022.66;;;15.73;41.40
65019;BME280;66069;51.164;-114.452;2023-02-04T06:14:48;87011.50;;;15.65;41.46
65019;BME280;66069;51.164;-114.452;2023-02-04T06:17:14;87018.25;;;15.66;41.47
65019;BME280;66069;51.164;-114.452;2023-02-04T06:19:41;87024.19;;;15.70;41.10
65019;BME280;66069;51.164;-114.452;2023-02-04T06:22:07;87020.06;;;15.69;41.15
65019;BME280;66069;51.164;-114.452;2023-02-04T06:24:33;87026.44;;;15.72;41.25
65019;BME280;66069;51.164;-114.452;2023-02-04T06:27:00;87021.56;;;15.70;41.15
65019;BME280;66069;51.164;-114.452;2023-02-04T06:29:26;87024.59;;;15.69;41.08
65019;BME280;66069;51.164;-114.452;2023-02-04T06:31:52;87033.00;;;15.64;41.33
65019;BME280;66069;51.164;-114.452;2023-02-04T06:34:18;87013.56;;;15.54;41.15
65019;BME280;66069;51.164;-114.452;2023-02-04T06:36:45;87028.53;;;15.60;41.33
65019;BME280;66069;51.164;-114.452;2023-02-04T06:39:11;87039.72;;;15.68;41.12
65019;BME280;66069;51.164;-114.452;2023-02-04T06:41:37;87022.50;;;15.60;41.30
65019;BME280;66069;51.164;-114.452;2023-02-04T06:44:04;87022.56;;;15.56;41.01
65019;BME280;66069;51.164;-114.452;2023-02-04T06:46:30;87029.69;;;15.59;41.09
65019;BME280;66069;51.164;-114.452;2023-02-04T06:48:56;87010.00;;;15.44;41.00
65019;BME280;66069;51.164;-114.452;2023-02-04T06:51:23;87034.91;;;15.63;41.19
65019;BME280;66069;51.164;-114.452;2023-02-04T06:53:49;87012.91;;;15.50;41.09
65019;BME280;66069;51.164;-114.452;2023-02-04T06:56:15;87038.31;;;15.64;41.03
65019;BME280;66069;51.164;-114.452;2023-02-04T06:58:41;87012.97;;;15.46;40.97
65019;BME280;66069;51.164;-114.452;2023-02-04T07:01:08;87036.06;;;15.62;40.92
65019;BME280;66069;51.164;-114.452;2023-02-04T07:03:34;86986.31;;;15.21;40.89
65019;BME280;66069;51.164;-114.452;2023-02-04T07:06:00;87038.34;;;15.60;41.14
65019;BME280;66069;51.164;-114.452;2023-02-04T07:08:27;87048.25;;;15.56;41.15
65019;BME280;66069;51.164;-114.452;2023-02-04T07:10:53;87042.50;;;15.61;41.07
65019;BME280;66069;51.164;-114.452;2023-02-04T07:13:19;87051.56;;;15.60;40.92
65019;BME280;66069;51.164;-114.452;2023-02-04T07:15:46;87033.47;;;15.58;40.98
65019;BME280;66069;51.164;-114.452;2023-02-04T07:18:12;87021.97;;;15.49;40.83
65019;BME280;66069;51.164;-114.452;2023-02-04T07:20:38;87026.84;;;15.50;40.89
65019;BME280;66069;51.164;-114.452;2023-02-04T07:23:05;87026.09;;;15.50;40.87
65019;BME280;66069;51.164;-114.452;2023-02-04T07:25:31;87018.91;;;15.50;41.05
65019;BME280;66069;51.164;-114.452;2023-02-04T07:27:57;87030.91;;;15.55;40.94
65019;BME280;66069;51.164;-114.452;2023-02-04T07:30:26;87032.97;;;15.47;41.04
65019;BME280;66069;51.164;-114.452;2023-02-04T07:32:52;87038.09;;;15.54;41.07
65019;BME280;66069;51.164;-114.452;2023-02-04T07:35:18;87003.53;;;15.29;41.02
65019;BME280;66069;51.164;-114.452;2023-02-04T07:37:45;87046.44;;;15.53;41.01
65019;BME280;66069;51.164;-114.452;2023-02-04T07:40:12;87022.59;;;15.37;40.88
65019;BME280;66069;51.164;-114.452;2023-02-04T07:42:38;87036.25;;;15.51;40.74
65019;BME280;66069;51.164;-114.452;2023-02-04T07:45:04;87044.91;;;15.52;40.87
65019;BME280;66069;51.164;-114.452;2023-02-04T07:47:31;87028.81;;;15.46;40.84
65019;BME280;66069;51.164;-114.452;2023-02-04T07:49:57;87047.97;;;15.50;41.03
65019;BME280;66069;51.164;-114.452;2023-02-04T07:52:24;87017.31;;;15.37;40.99
65019;BME280;66069;51.164;-114.452;2023-02-04T07:54:51;87008.56;;;15.40;40.79
65019;BME280;66069;51.164;-114.452;2023-02-04T07:57:20;87005.38;;;15.48;40.82
65019;BME280;66069;51.164;-114.452;2023-02-04T07:59:46;87006.53;;;15.47;41.07
65019;BME280;66069;51.164;-114.452;2023-02-04T08:02:13;86995.78;;;15.38;40.74
65019;BME280;66069;51.164;-114.452;2023-02-04T08:04:39;87001.66;;;15.46;40.88
65019;BME280;66069;51.164;-114.452;2023-02-04T08:07:06;86991.31;;;15.35;40.99
65019;BME280;66069;51.164;-114.452;2023-02-04T08:09:32;86972.63;;;15.26;41.09
65019;BME280;66069;51.164;-114.452;2023-02-04T08:11:58;86948.06;;;15.09;40.89
65019;BME280;66069;51.164;-114.452;2023-02-04T08:14:25;86997.94;;;15.43;41.10
65019;BME280;66069;51.164;-114.452;2023-02-04T08:16:51;86990.06;;;15.40;40.80
65019;BME280;66069;51.164;-114.452;2023-02-04T08:19:17;86992.34;;;15.41;40.84
65019;BME280;66069;51.164;-114.452;2023-02-04T08:21:46;86991.59;;;15.41;40.76
65019;BME280;66069;51.164;-114.452;2023-02-04T08:24:14;86985.53;;;15.40;40.97
65019;BME280;66069;51.164;-114.452;2023-02-04T08:26:41;86978.44;;;15.37;40.75
65019;BME280;66069;51.164;-114.452;2023-02-04T08:29:08;86957.25;;;15.21;40.66
65019;BME280;66069;51.164;-114.452;2023-02-04T08:31:35;86973.91;;;15.38;40.81
65019;BME280;66069;51.164;-114.452;2023-02-04T08:34:03;86970.19;;;15.35;40.99
65019;BME280;66069;51.164;-114.452;2023-02-04T08:36:30;86973.16;;;15.37;40.86
65019;BME280;66069;51.164;-114.452;2023-02-04T08:38:56;86940.34;;;15.18;40.69
65019;BME280;66069;51.164;-114.452;2023-02-04T08:41:22;86970.94;;;15.35;40.96
65019;BME280;66069;51.164;-114.452;2023-02-04T08:43:49;86962.44;;;15.28;40.79
65019;BME280;66069;51.164;-114.452;2023-02-04T08:46:15;86962.28;;;15.35;40.91
65019;BME280;66069;51.164;-114.452;2023-02-04T08:48:41;86949.53;;;15.30;40.96
65019;BME280;66069;51.164;-114.452;2023-02-04T08:51:08;86961.91;;;15.33;40.59
65019;BME280;66069;51.164;-114.452;2023-02-04T08:53:34;86951.44;;;15.29;40.95
65019;BME280;66069;51.164;-114.452;2023-02-04T08:56:00;86953.66;;;15.31;40.92
65019;BME280;66069;51.164;-114.452;2023-02-04T08:58:27;86944.00;;;15.24;41.04
65019;BME280;66069;51.164;-114.452;2023-02-04T09:00:53;86951.44;;;15.29;40.98
65019;BME280;66069;51.164;-114.452;2023-02-04T09:03:19;86950.72;;;15.29;40.85
65019;BME280;66069;51.164;-114.452;2023-02-04T09:05:46;86929.06;;;15.18;41.01
65019;BME280;66069;51.164;-114.452;2023-02-04T09:08:12;86947.78;;;15.23;40.86
65019;BME280;66069;51.164;-114.452;2023-02-04T09:10:40;86950.44;;;15.23;40.96
65019;BME280;66069;51.164;-114.452;2023-02-04T09:13:06;86944.06;;;15.21;40.79
65019;BME280;66069;51.164;-114.452;2023-02-04T09:15:36;86945.06;;;15.27;40.92
65019;BME280;66069;51.164;-114.452;2023-02-04T09:18:02;86948.97;;;15.22;40.77
65019;BME280;66069;51.164;-114.452;2023-02-04T09:20:48;86954.56;;;15.24;41.02
65019;BME280;66069;51.164;-114.452;2023-02-04T09:23:15;86956.47;;;15.24;40.97
65019;BME280;66069;51.164;-114.452;2023-02-04T09:25:42;86949.50;;;15.14;40.78
65019;BME280;66069;51.164;-114.452;2023-02-04T09:28:10;86953.97;;;15.17;40.91
65019;BME280;66069;51.164;-114.452;2023-02-04T09:30:41;86953.34;;;15.09;40.97
65019;BME280;66069;51.164;-114.452;2023-02-04T09:33:09;86973.09;;;15.21;41.01
65019;BME280;66069;51.164;-114.452;2023-02-04T09:35:36;86970.47;;;15.21;41.11
65019;BME280;66069;51.164;-114.452;2023-02-04T09:38:03;86979.53;;;15.20;41.06
65019;BME280;66069;51.164;-114.452;2023-02-04T09:40:32;86976.56;;;15.18;40.82
65019;BME280;66069;51.164;-114.452;2023-02-04T09:43:00;86977.31;;;15.18;41.05
65019;BME280;66069;51.164;-114.452;2023-02-04T09:45:30;86971.28;;;15.18;40.90
65019;BME280;66069;51.164;-114.452;2023-02-04T09:48:00;86968.66;;;15.18;40.81
65019;BME280;66069;51.164;-114.452;2023-02-04T09:50:28;86952.06;;;15.17;41.01
65019;BME280;66069;51.164;-114.452;2023-02-04T09:53:08;86956.66;;;15.13;40.99
65019;BME280;66069;51.164;-114.452;2023-02-04T09:55:39;86967.56;;;15.15;40.90
65019;BME280;66069;51.164;-114.452;2023-02-04T09:58:17;86984.56;;;15.14;40.81
65019;BME280;66069;51.164;-114.452;2023-02-04T10:00:45;86976.31;;;15.12;41.03
65019;BME280;66069;51.164;-114.452;2023-02-04T10:03:17;86975.16;;;15.13;40.54
65019;BME280;66069;51.164;-114.452;2023-02-04T10:05:45;86955.88;;;14.96;41.11
65019;BME280;66069;51.164;-114.452;2023-02-04T10:08:14;86964.41;;;15.04;40.84
65019;BME280;66069;51.164;-114.452;2023-02-04T10:10:42;86961.34;;;15.05;40.94
65019;BME280;66069;51.164;-114.452;2023-02-04T10:13:16;86959.13;;;15.04;40.85
65019;BME280;66069;51.164;-114.452;2023-02-04T10:15:44;86976.72;;;15.11;41.11
65019;BME280;66069;51.164;-114.452;2023-02-04T10:18:23;86969.75;;;15.00;41.06
65019;BME280;66069;51.164;-114.452;2023-02-04T10:21:05;86954.19;;;14.86;41.13
65019;BME280;66069;51.164;-114.452;2023-02-04T10:23:34;86971.69;;;14.96;41.06
65019;BME280;66069;51.164;-114.452;2023-02-04T10:26:00;86992.63;;;15.07;40.96
65019;BME280;66069;51.164;-114.452;2023-02-04T10:28:35;86982.94;;;15.00;40.88
65019;BME280;66069;51.164;-114.452;2023-02-04T10:31:02;86993.78;;;15.06;40.88
65019;BME280;66069;51.164;-114.452;2023-02-04T10:33:28;86992.28;;;15.05;40.85
65019;BME280;66069;51.164;-114.452;2023-02-04T10:35:56;86990.06;;;15.03;40.87
65019;BME280;66069;51.164;-114.452;2023-02-04T10:38:23;86996.09;;;15.04;41.07
65019;BME280;66069;51.164;-114.452;2023-02-04T10:41:03;86990.06;;;15.03;40.92
65019;BME280;66069;51.164;-114.452;2023-02-04T10:43:31;86969.22;;;14.89;41.11
65019;BME280;66069;51.164;-114.452;2023-02-04T10:46:02;86990.44;;;15.02;40.77
65019;BME280;66069;51.164;-114.452;2023-02-04T10:48:28;86989.72;;;15.01;41.12
65019;BME280;66069;51.164;-114.452;2023-02-04T10:50:57;86980.13;;;14.91;40.82
65019;BME280;66069;51.164;-114.452;2023-02-04T10:53:24;86964.16;;;14.78;41.11
65019;BME280;66069;51.164;-114.452;2023-02-04T10:56:20;86987.91;;;14.98;41.11
65019;BME280;66069;51.164;-114.452;2023-02-04T10:58:47;86997.31;;;14.99;40.94
65019;BME280;66069;51.164;-114.452;2023-02-04T11:01:15;86994.38;;;14.94;41.10
65019;BME280;66069;51.164;-114.452;2023-02-04T11:03:42;86994.06;;;14.92;41.11
65019;BME280;66069;51.164;-114.452;2023-02-04T11:06:19;87009.06;;;14.95;41.03
65019;BME280;66069;51.164;-114.452;2023-02-04T11:08:46;87007.59;;;14.94;41.02
65019;BME280;66069;51.164;-114.452;2023-02-04T11:13:44;87015.91;;;14.92;41.30
65019;BME280;66069;51.164;-114.452;2023-02-04T11:21:27;87020.03;;;14.93;41.29
65019;BME280;66069;51.164;-114.452;2023-02-04T11:24:05;87025.00;;;14.91;41.33
65019;BME280;66069;51.164;-114.452;2023-02-04T11:26:46;87018.97;;;14.91;41.08
65019;BME280;66069;51.164;-114.452;2023-02-04T11:39:45;87046.47;;;14.90;40.94
65019;BME280;66069;51.164;-114.452;2023-02-04T11:43:01;87045.00;;;14.89;41.10
65019;BME280;66069;51.164;-114.452;2023-02-04T11:45:24;87054.81;;;14.88;41.12
65019;BME280;66069;51.164;-114.452;2023-02-04T11:47:51;87071.41;;;14.89;41.04
65019;BME280;66069;51.164;-114.452;2023-02-04T11:52:50;87057.13;;;14.86;41.14
65019;BME280;66069;51.164;-114.452;2023-02-04T11:55:18;87068.41;;;14.87;41.21
65019;BME280;66069;51.164;-114.452;2023-02-04T11:57:45;87052.06;;;14.72;41.29
65019;BME280;66069;51.164;-114.452;2023-02-04T12:00:24;87066.19;;;14.85;41.20
65019;BME280;66069;51.164;-114.452;2023-02-04T12:03:27;87076.00;;;14.85;41.28
65019;BME280;66069;51.164;-114.452;2023-02-04T12:05:57;87075.22;;;14.84;41.26
65019;BME280;66069;51.164;-114.452;2023-02-04T12:08:33;87073.75;;;14.83;41.29
65019;BME280;66069;51.164;-114.452;2023-02-04T12:11:08;87069.63;;;14.82;41.38
65019;BME280;66069;51.164;-114.452;2023-02-04T12:13:50;87081.75;;;14.79;41.20
65019;BME280;66069;51.164;-114.452;2023-02-04T12:16:18;87089.25;;;14.81;41.19
65019;BME280;66069;51.164;-114.452;2023-02-04T12:18:44;87086.66;;;14.77;41.40
65019;BME280;66069;51.164;-114.452;2023-02-04T12:21:11;87055.03;;;14.54;41.23
65019;BME280;66069;51.164;-114.452;2023-02-04T12:23:39;87098.31;;;14.80;41.36
65019;BME280;66069;51.164;-114.452;2023-02-04T12:26:07;87098.44;;;14.73;41.23
65019;BME280;66069;51.164;-114.452;2023-02-04T12:28:34;87119.06;;;14.78;41.41
65019;BME280;66069;51.164;-114.452;2023-02-04T12:31:00;87095.22;;;14.62;41.66
65019;BME280;66069;51.164;-114.452;2023-02-04T12:33:26;87092.25;;;14.60;41.15
65019;BME280;66069;51.164;-114.452;2023-02-04T12:35:53;87103.88;;;14.62;41.44
65019;BME280;66069;51.164;-114.452;2023-02-04T12:38:20;87128.13;;;14.77;41.27
65019;BME280;66069;51.164;-114.452;2023-02-04T12:40:46;87127.81;;;14.75;41.40
65019;BME280;66069;51.164;-114.452;2023-02-04T12:43:12;87128.53;;;14.75;41.51
65019;BME280;66069;51.164;-114.452;2023-02-04T12:45:39;87133.06;;;14.75;41.28
65019;BME280;66069;51.164;-114.452;2023-02-04T12:48:11;87130.59;;;14.64;41.50
65019;BME280;66069;51.164;-114.452;2023-02-04T12:50:37;87147.41;;;14.74;41.11
65019;BME280;66069;51.164;-114.452;2023-02-04T12:53:03;87148.91;;;14.75;41.57
65019;BME280;66069;51.164;-114.452;2023-02-04T12:55:31;87148.16;;;14.74;41.63